Time;durP1;ratioP1;P1;durP2;ratioP2;P2;SDS_P1;SDS_P2;PMS_P1;PMS_P2;Temp;Humidity;BMP_temperature;BMP_pressure;BME280_temperature;BME280_humidity;BME280_pressure;Samples;Min_cycle;Max_cycle;Signal;HPM_P1;HPM_P2
2023/06/21 00:02:03;;;;;;;20.63;16.30;;;19.40;99.90;;;;;;4900955;29;20086;-96
2023/06/21 00:05:16;;;;;;;18.52;15.90;;;19.40;99.90;;;;;;4855720;29;20061;-96
2023/06/21 00:12:36;;;;;;;;;;;19.50;99.90;;;;;;4811982;29;20068;-96
2023/06/21 00:16:00;;;;;;;;;;;;;;;;;;;;;
2023/06/21 00:19:25;;;;;;;;;;;;;;;;;;;;;
2023/06/21 00:33:00;;;;;;;25.45;17.25;;;19.40;99.90;;;;;;4746629;29;20055;-96
2023/06/21 00:36:13;;;;;;;24.52;18.25;;;19.30;99.90;;;;;;4813043;29;20074;-96
2023/06/21 00:39:23;;;;;;;25.70;17.88;;;19.30;99.90;;;;;;4767782;29;20058;-96
2023/06/21 00:42:47;;;;;;;24.80;18.48;;;19.30;99.90;;;;;;4795041;29;20065;-96
2023/06/21 00:50:02;;;;;;;29.67;20.20;;;19.20;99.90;;;;;;4856862;29;20135;-96
2023/06/21 00:53:16;;;;;;;24.70;20.17;;;19.30;99.90;;;;;;4849887;29;20080;-96
2023/06/21 01:03:15;;;;;;;33.70;21.85;;;19.30;99.90;;;;;;4870846;29;20049;-96
2023/06/21 01:16:56;;;;;;;30.23;22.83;;;19.20;99.90;;;;;;4823036;29;20129;-96
2023/06/21 01:20:30;;;;;;;29.48;22.85;;;19.20;99.90;;;;;;4828469;29;20465;-96
2023/06/21 01:23:50;;;;;;;31.40;22.70;;;19.20;99.90;;;;;;4795099;29;20089;-96
2023/06/21 01:27:03;;;;;;;37.17;22.85;;;19.30;99.90;;;;;;4852223;29;20144;-96
2023/06/21 01:29:47;;;;;;;32.17;23.75;;;19.30;99.90;;;;;;4866150;29;20065;-96
2023/06/21 01:34:05;;;;;;;;;;;;;;;;;;;;;
2023/06/21 01:36:27;;;;;;;33.60;25.25;;;19.30;99.90;;;;;;4853865;29;20045;-96
2023/06/21 01:43:10;;;;;;;28.52;21.58;;;19.30;99.90;;;;;;4881802;29;20096;-96
2023/06/21 01:46:10;;;;;;;37.95;26.60;;;19.30;99.90;;;;;;4882353;29;20048;-96
2023/06/21 01:54:15;;;;;;;33.85;24.50;;;19.30;99.90;;;;;;4734962;29;20058;-96
2023/06/21 01:57:53;;;;;;;36.58;22.85;;;19.30;99.90;;;;;;4801786;29;20062;-96
2023/06/21 02:08:23;;;;;;;30.88;23.55;;;19.30;99.90;;;;;;4793810;29;20050;-96
2023/06/21 02:11:41;;;;;;;34.92;25.30;;;19.20;99.90;;;;;;4778670;29;20538;-96
2023/06/21 02:15:10;;;;;;;34.53;25.95;;;19.10;99.90;;;;;;4775875;29;20083;-96
2023/06/21 02:18:13;;;;;;;31.83;25.05;;;19.20;99.90;;;;;;4805759;29;20085;-96
2023/06/21 02:21:37;;;;;;;33.10;24.38;;;19.10;99.90;;;;;;4828796;29;20065;-96
2023/06/21 02:43:32;;;;;;;50.13;30.92;;;19.10;99.90;;;;;;4781765;29;20050;-96
2023/06/21 02:46:27;;;;;;;45.42;33.00;;;18.90;99.90;;;;;;4800057;29;20067;-96
2023/06/21 02:49:45;;;;;;;45.42;34.17;;;19.00;99.90;;;;;;4791438;29;20049;-96
2023/06/21 02:56:18;;;;;;;;;;;18.90;99.90;;;;;;4783663;29;20050;-96
2023/06/21 02:59:39;;;;;;;48.17;35.45;;;18.90;99.90;;;;;;4828753;29;19972;-96
2023/06/21 03:02:44;;;;;;;45.83;34.35;;;18.80;99.90;;;;;;4793859;29;20058;-96
2023/06/21 03:05:43;;;;;;;47.42;34.20;;;18.80;99.90;;;;;;4818165;29;20119;-96
2023/06/21 03:08:51;;;;;;;54.80;37.13;;;18.80;99.90;;;;;;4856970;29;20049;-96
2023/06/21 03:11:51;;;;;;;46.03;34.80;;;18.70;99.90;;;;;;4881670;29;20072;-96
2023/06/21 03:15:42;;;;;;;51.38;36.92;;;18.70;99.90;;;;;;4883946;29;20043;-96
2023/06/21 03:19:08;;;;;;;50.92;37.83;;;18.70;99.90;;;;;;4848204;29;20076;-97
2023/06/21 03:23:04;;;;;;;;;;;;;;;;;;;;;
2023/06/21 03:25:57;;;;;;;;;;;;;;;;;;;;;
2023/06/21 03:32:03;;;;;;;50.27;38.53;;;18.70;99.90;;;;;;4898768;29;20489;-96
2023/06/21 03:35:04;;;;;;;53.63;38.25;;;18.60;99.90;;;;;;4794898;29;20286;-96
2023/06/21 03:37:46;;;;;;;56.42;39.47;;;18.30;99.90;;;;;;4862227;29;20061;-96
2023/06/21 03:40:48;;;;;;;55.65;39.15;;;18.80;99.90;;;;;;4876708;29;20048;-96
2023/06/21 03:44:10;;;;;;;60.47;38.55;;;18.70;99.90;;;;;;4874285;29;20065;-96
2023/06/21 03:47:14;;;;;;;53.13;38.25;;;18.80;99.90;;;;;;4869082;29;20066;-96
2023/06/21 03:50:56;;;;;;;50.63;36.53;;;18.90;99.90;;;;;;4804211;29;20064;-96
2023/06/21 03:57:24;;;;;;;46.70;34.83;;;18.90;99.90;;;;;;4860668;29;20104;-96
2023/06/21 04:04:18;;;;;;;;;;;;;;;;;;;;;
2023/06/21 04:07:37;;;;;;;;;;;;;;;;;;;;;
2023/06/21 04:11:00;;;;;;;;;;;;;;;;;;;;;
2023/06/21 04:13:48;;;;;;;57.33;39.28;;;18.80;99.90;;;;;;4776793;29;20089;-96
2023/06/21 04:17:20;;;;;;;54.85;38.95;;;18.80;99.90;;;;;;4802053;29;20054;-96
2023/06/21 04:20:15;;;;;;;51.42;36.35;;;18.80;99.90;;;;;;4803968;29;20066;-96
2023/06/21 04:34:04;;;;;;;55.40;39.80;;;18.90;99.90;;;;;;4855045;29;20076;-96
2023/06/21 04:40:43;;;;;;;48.58;35.92;;;18.90;99.90;;;;;;4886277;29;20052;-96
2023/06/21 04:44:02;;;;;;;55.35;38.92;;;18.90;99.90;;;;;;4847017;29;20060;-96
2023/06/21 04:47:29;;;;;;;48.17;37.03;;;19.00;99.90;;;;;;4815828;29;20115;-96
2023/06/21 04:57:47;;;;;;;47.58;34.13;;;19.10;99.90;;;;;;4801694;29;20081;-96
2023/06/21 05:11:27;;;;;;;40.50;31.02;;;19.30;99.90;;;;;;4793026;29;20510;-96
2023/06/21 05:17:28;;;;;;;39.15;27.70;;;19.30;99.90;;;;;;4877734;29;20060;-96
2023/06/21 05:20:24;;;;;;;39.80;28.88;;;19.30;99.90;;;;;;4881296;29;20043;-96
2023/06/21 05:33:30;;;;;;;33.03;23.33;;;19.40;99.90;;;;;;4862676;29;20097;-96
2023/06/21 05:36:17;;;;;;;32.50;20.50;;;19.40;99.90;;;;;;4818695;29;20072;-96
2023/06/21 05:42:52;;;;;;;30.92;20.30;;;19.40;99.90;;;;;;4894827;29;20060;-96
2023/06/21 05:45:45;;;;;;;29.38;19.20;;;19.60;99.90;;;;;;4854609;29;20536;-96
2023/06/21 05:48:29;;;;;;;29.90;19.30;;;19.50;99.90;;;;;;4856167;29;20056;-96
2023/06/21 05:54:56;;;;;;;31.13;18.92;;;19.70;99.90;;;;;;4854318;29;20052;-96
2023/06/21 05:58:01;;;;;;;26.98;18.33;;;19.70;99.90;;;;;;4820562;29;20418;-96
2023/06/21 06:01:44;;;;;;;25.90;17.35;;;19.70;99.90;;;;;;4892447;29;20038;-96
2023/06/21 06:05:15;;;;;;;31.70;17.00;;;19.70;99.90;;;;;;4888340;29;20080;-96
2023/06/21 06:08:25;;;;;;;;;;;;;;;;;;;;;
2023/06/21 06:12:21;;;;;;;25.17;15.32;;;19.80;99.90;;;;;;4895981;29;20055;-96
2023/06/21 06:14:53;;;;;;;23.23;14.75;;;19.80;99.90;;;;;;4820450;29;20337;-96
2023/06/21 06:18:06;;;;;;;21.83;14.82;;;19.90;99.90;;;;;;4897505;29;20088;-96
2023/06/21 06:21:01;;;;;;;26.73;14.80;;;20.00;99.90;;;;;;4815502;29;20061;-96
2023/06/21 06:24:01;;;;;;;22.73;14.10;;;20.10;99.90;;;;;;4851951;29;20130;-96
2023/06/21 06:27:09;;;;;;;20.15;14.40;;;20.10;99.90;;;;;;4842806;29;20060;-96
2023/06/21 06:30:43;;;;;;;22.30;14.32;;;20.20;99.90;;;;;;4894869;29;20047;-96
2023/06/21 06:32:48;;;;;;;20.58;14.10;;;20.20;99.90;;;;;;4900741;29;20481;-96
2023/06/21 06:35:20;;;;;;;23.17;14.70;;;20.30;99.90;;;;;;4899866;29;20045;-96
2023/06/21 06:37:46;;;;;;;21.70;13.68;;;20.40;99.90;;;;;;4858924;29;20148;-96
2023/06/21 06:40:12;;;;;;;21.50;14.02;;;20.50;99.90;;;;;;4861516;29;20560;-96
2023/06/21 06:42:37;;;;;;;19.13;12.82;;;20.50;99.90;;;;;;4863849;29;20127;-96
2023/06/21 06:45:04;;;;;;;17.52;12.15;;;20.50;99.90;;;;;;4862758;29;20132;-96
2023/06/21 06:47:30;;;;;;;20.33;12.80;;;20.60;99.90;;;;;;4863900;29;20041;-96
2023/06/21 06:49:57;;;;;;;21.75;13.45;;;20.60;99.90;;;;;;4862853;29;20558;-96
2023/06/21 06:52:23;;;;;;;30.25;12.77;;;20.80;99.90;;;;;;4875469;29;20057;-96
2023/06/21 06:54:48;;;;;;;20.10;12.75;;;20.80;99.90;;;;;;4864274;29;20052;-96
2023/06/21 06:57:14;;;;;;;23.17;13.73;;;21.00;99.90;;;;;;4863857;29;20044;-96
2023/06/21 06:59:40;;;;;;;21.92;13.07;;;21.00;99.90;;;;;;4857593;29;20060;-96
2023/06/21 07:02:06;;;;;;;19.50;11.52;;;21.10;99.90;;;;;;4862918;29;20068;-96
2023/06/21 07:04:32;;;;;;;19.67;11.77;;;21.20;99.90;;;;;;4862472;29;20033;-96
2023/06/21 07:07:00;;;;;;;19.83;12.40;;;21.30;99.90;;;;;;4862303;29;20089;-96
2023/06/21 07:09:26;;;;;;;15.00;10.23;;;21.40;99.90;;;;;;4862615;29;20084;-96
2023/06/21 07:11:56;;;;;;;13.88;9.43;;;21.50;99.90;;;;;;4880824;29;20079;-96
2023/06/21 07:14:23;;;;;;;14.18;10.23;;;21.50;99.90;;;;;;4873503;29;20533;-95
2023/06/21 07:16:50;;;;;;;15.77;10.70;;;21.50;99.90;;;;;;4866553;29;20083;-96
2023/06/21 07:19:19;;;;;;;15.57;9.45;;;21.60;99.90;;;;;;4867910;29;20052;-96
2023/06/21 07:21:45;;;;;;;16.08;9.32;;;21.80;99.90;;;;;;4868178;29;20051;-96
2023/06/21 07:24:11;;;;;;;15.15;9.10;;;21.90;99.90;;;;;;4867680;29;20064;-96
2023/06/21 07:26:39;;;;;;;15.85;8.68;;;21.90;99.90;;;;;;4888587;29;20063;-96
2023/06/21 07:29:04;;;;;;;15.23;8.60;;;22.00;99.90;;;;;;4872482;29;20317;-95
2023/06/21 07:31:54;;;;;;;17.13;8.80;;;22.10;99.90;;;;;;4872916;29;20082;-96
2023/06/21 07:34:48;;;;;;;19.27;10.05;;;22.10;99.90;;;;;;4848058;29;20059;-96
2023/06/21 07:37:34;;;;;;;14.73;9.25;;;22.20;99.90;;;;;;4827163;29;20649;-96
2023/06/21 07:40:37;;;;;;;18.13;9.23;;;22.40;99.90;;;;;;4874739;29;20044;-96
2023/06/21 07:43:35;;;;;;;12.45;7.72;;;22.20;99.90;;;;;;4861615;29;20044;-96
2023/06/21 07:46:14;;;;;;;12.57;7.07;;;22.50;99.90;;;;;;4865500;29;20048;-95
2023/06/21 07:52:04;;;;;;;12.88;6.28;;;22.40;99.90;;;;;;4845058;29;20546;-96
2023/06/21 07:54:59;;;;;;;10.32;6.55;;;22.60;99.90;;;;;;4853891;29;20084;-96
2023/06/21 07:57:32;;;;;;;12.27;7.18;;;22.60;99.90;;;;;;4842020;29;20053;-96
2023/06/21 08:03:16;;;;;;;12.18;5.50;;;22.70;99.90;;;;;;4847964;29;20131;-96
2023/06/21 08:09:30;;;;;;;11.55;6.05;;;22.60;99.90;;;;;;4866863;29;20059;-96
2023/06/21 08:12:06;;;;;;;13.18;6.40;;;22.60;99.90;;;;;;4899210;29;20082;-96
2023/06/21 08:15:17;;;;;;;9.77;5.90;;;22.90;99.90;;;;;;4873118;29;20062;-96
2023/06/21 08:18:15;;;;;;;;;;;;;;;;;;;;;
2023/06/21 08:21:08;;;;;;;;;;;22.80;99.90;;;;;;4890865;29;20052;-96
2023/06/21 08:27:44;;;;;;;10.27;5.32;;;23.00;99.90;;;;;;4898836;29;20061;-96
2023/06/21 08:31:00;;;;;;;10.05;5.32;;;23.00;99.90;;;;;;4846799;29;20508;-96
2023/06/21 08:37:21;;;;;;;8.07;5.45;;;23.10;99.90;;;;;;4831703;29;20135;-96
2023/06/21 08:39:56;;;;;;;12.25;5.80;;;23.10;99.90;;;;;;4893894;29;20060;-96
2023/06/21 08:42:46;;;;;;;9.20;5.57;;;23.20;99.90;;;;;;4876906;29;20051;-96
2023/06/21 08:45:44;;;;;;;14.70;6.10;;;23.30;99.90;;;;;;4880618;29;20052;-96
2023/06/21 08:48:37;;;;;;;10.93;6.30;;;23.40;99.90;;;;;;4862835;29;20125;-96
2023/06/21 08:51:35;;;;;;;10.50;6.22;;;23.50;99.90;;;;;;4887177;29;20079;-96
2023/06/21 08:54:26;;;;;;;9.20;5.55;;;23.60;99.90;;;;;;4833871;29;20060;-96
2023/06/21 08:57:47;;;;;;;10.15;4.60;;;23.80;99.90;;;;;;4847625;29;20056;-96
2023/06/21 09:00:53;;;;;;;;;;;;;;;;;;;;;
2023/06/21 09:03:58;;;;;;;13.00;5.00;;;23.80;99.90;;;;;;4878570;29;20067;-96
2023/06/21 09:06:35;;;;;;;8.80;4.55;;;23.80;99.90;;;;;;4865652;29;20391;-96
2023/06/21 09:09:21;;;;;;;;;;;23.80;99.90;;;;;;4871376;29;20063;-96
2023/06/21 09:12:17;;;;;;;8.50;4.60;;;23.80;99.90;;;;;;4863441;29;19934;-96
2023/06/21 09:17:37;;;;;;;9.50;4.70;;;23.80;99.90;;;;;;4833085;29;20056;-96
2023/06/21 09:20:27;;;;;;;11.95;5.18;;;23.60;99.90;;;;;;4862713;29;20052;-96
2023/06/21 09:23:06;;;;;;;9.55;5.97;;;23.70;99.90;;;;;;4870487;29;20077;-96
2023/06/21 09:25:58;;;;;;;11.27;6.20;;;23.40;99.90;;;;;;4853955;29;20100;-95
2023/06/21 09:28:32;;;;;;;9.20;4.57;;;23.90;99.90;;;;;;4858918;29;20056;-96
2023/06/21 09:34:43;;;;;;;8.07;5.07;;;23.90;99.90;;;;;;4882341;29;20099;-96
2023/06/21 09:37:37;;;;;;;7.72;4.43;;;24.00;99.90;;;;;;4876808;29;20069;-96
2023/06/21 09:43:22;;;;;;;9.02;4.93;;;24.10;99.90;;;;;;4927955;23;20507;-92
2023/06/21 09:46:40;;;;;;;8.55;3.90;;;24.20;99.90;;;;;;4875996;23;20145;-90
2023/06/21 09:49:46;;;;;;;9.63;4.28;;;24.20;99.90;;;;;;4786636;29;20142;-90
2023/06/21 09:52:42;;;;;;;7.78;4.53;;;24.10;99.90;;;;;;4772599;29;20058;-91
2023/06/21 10:04:14;;;;;;;9.63;4.30;;;25.00;99.90;;;;;;4855968;29;20053;-90
2023/06/21 10:07:00;;;;;;;;;;;;;;;;;;;;;
2023/06/21 10:16:53;;;;;;;7.07;4.07;;;25.10;99.90;;;;;;4912786;23;20059;-95
2023/06/21 10:23:10;;;;;;;8.55;4.50;;;24.90;99.90;;;;;;4868011;29;20064;-95
2023/06/21 10:25:18;;;;;;;6.30;4.13;;;24.90;99.90;;;;;;4873776;29;20140;-96
2023/06/21 10:31:40;;;;;;;6.82;4.13;;;25.10;99.90;;;;;;4881065;29;20051;-96
2023/06/21 10:34:55;;;;;;;;;;;;;;;;;;;;;
2023/06/21 10:38:52;;;;;;;8.45;3.63;;;25.00;99.90;;;;;;4914214;29;20052;-95
2023/06/21 10:42:05;;;;;;;;;;;;;;;;;;;;;
2023/06/21 10:44:48;;;;;;;6.90;3.58;;;25.10;99.90;;;;;;4895316;29;20088;-96
2023/06/21 10:47:24;;;;;;;6.38;3.13;;;25.20;99.90;;;;;;4893827;29;20043;-96
2023/06/21 10:50:19;;;;;;;8.35;3.20;;;25.10;99.90;;;;;;4892702;29;20032;-95
2023/06/21 10:56:26;;;;;;;8.32;3.30;;;24.80;99.90;;;;;;4888864;29;20381;-95
2023/06/21 10:59:10;;;;;;;5.95;3.30;;;25.10;99.90;;;;;;4887807;29;20507;-96
2023/06/21 11:01:48;;;;;;;7.28;3.78;;;25.10;99.90;;;;;;4915841;29;20150;-95
2023/06/21 11:04:58;;;;;;;5.80;3.03;;;25.50;99.90;;;;;;4897952;29;20056;-95
2023/06/21 11:07:46;;;;;;;5.40;2.90;;;25.40;99.90;;;;;;4879079;29;20052;-95
2023/06/21 11:10:35;;;;;;;7.60;2.90;;;26.00;99.90;;;;;;4881841;29;20123;-95
2023/06/21 11:13:11;;;;;;;5.40;2.78;;;26.20;99.90;;;;;;4914805;29;20059;-96
2023/06/21 11:18:57;;;;;;;6.93;2.88;;;25.80;99.90;;;;;;4872142;29;20054;-95
2023/06/21 11:22:16;;;;;;;4.35;2.33;;;25.90;99.90;;;;;;4887244;29;20100;-95
2023/06/21 11:32:40;;;;;;;;;;;;;;;;;;;;;
2023/06/21 11:36:06;;;;;;;;;;;;;;;;;;;;;
2023/06/21 11:38:42;;;;;;;7.13;3.45;;;26.60;99.90;;;;;;4900089;29;20493;-96
2023/06/21 11:41:50;;;;;;;6.53;2.80;;;26.80;99.90;;;;;;4893538;29;20040;-96
2023/06/21 11:44:50;;;;;;;7.32;2.70;;;26.80;99.90;;;;;;4902223;29;20055;-96
2023/06/21 11:47:21;;;;;;;5.57;3.08;;;26.90;99.90;;;;;;4897136;29;20096;-96
2023/06/21 11:50:16;;;;;;;7.53;2.85;;;26.80;99.90;;;;;;4885804;29;20055;-96
2023/06/21 11:53:16;;;;;;;4.95;3.15;;;26.60;99.90;;;;;;4903446;29;20452;-96
2023/06/21 11:56:21;;;;;;;7.97;2.83;;;26.30;99.90;;;;;;4906629;29;20044;-96
2023/06/21 11:58:55;;;;;;;6.53;2.70;;;26.20;99.90;;;;;;4893613;29;20055;-96
2023/06/21 12:01:39;;;;;;;7.25;3.00;;;26.60;99.90;;;;;;4935203;29;20095;-96
2023/06/21 12:04:34;;;;;;;3.58;2.38;;;26.60;99.90;;;;;;4889662;29;20052;-96
2023/06/21 12:07:52;;;;;;;8.00;3.00;;;26.70;99.90;;;;;;4809782;29;20508;-95
2023/06/21 12:10:48;;;;;;;9.07;2.80;;;27.00;99.90;;;;;;4852496;29;20075;-96
2023/06/21 12:17:37;;;;;;;7.57;3.88;;;27.10;99.90;;;;;;4909065;29;20063;-96
2023/06/21 12:23:36;;;;;;;6.88;3.25;;;26.80;99.90;;;;;;4901980;29;20060;-96
2023/06/21 12:26:46;;;;;;;5.25;3.20;;;26.60;99.90;;;;;;4885687;29;20072;-96
2023/06/21 12:29:32;;;;;;;;;;;26.50;99.90;;;;;;4851015;29;20138;-96
2023/06/21 12:32:33;;;;;;;8.13;4.43;;;26.50;99.90;;;;;;4900958;29;19986;-96
2023/06/21 12:35:19;;;;;;;8.98;4.10;;;26.50;99.90;;;;;;4879832;29;20052;-96
2023/06/21 12:41:40;;;;;;;7.80;3.88;;;26.80;99.90;;;;;;4862320;29;20048;-96
2023/06/21 12:45:12;;;;;;;;;;;;;;;;;;;;;
2023/06/21 12:48:01;;;;;;;7.97;3.13;;;27.20;99.90;;;;;;4909208;29;20048;-96
2023/06/21 12:50:40;;;;;;;5.97;3.10;;;27.40;99.90;;;;;;4846005;29;20052;-96
2023/06/21 12:53:27;;;;;;;4.75;2.67;;;27.60;99.90;;;;;;4879031;29;20047;-96
2023/06/21 12:56:35;;;;;;;9.70;3.10;;;27.60;99.90;;;;;;4894109;29;20491;-96
2023/06/21 12:59:39;;;;;;;;;;;;;;;;;;;;;
2023/06/21 13:02:31;;;;;;;6.07;1.63;;;27.60;99.90;;;;;;4917608;29;20130;-96
2023/06/21 13:05:21;;;;;;;7.20;2.27;;;27.60;99.90;;;;;;4842163;29;20308;-96
2023/06/21 13:14:20;;;;;;;5.85;1.63;;;27.40;98.40;;;;;;4917534;29;20087;-96
2023/06/21 13:17:20;;;;;;;2.40;1.60;;;27.50;97.60;;;;;;4902673;29;20511;-96
2023/06/21 13:20:21;;;;;;;4.80;1.80;;;27.50;96.60;;;;;;4902190;29;20054;-96
2023/06/21 13:23:15;;;;;;;5.78;2.10;;;27.50;97.20;;;;;;4903009;29;20056;-96
2023/06/21 13:29:39;;;;;;;;;;;;;;;;;;;;;
2023/06/21 13:35:53;;;;;;;5.63;1.92;;;27.20;96.30;;;;;;4823292;29;20088;-96
2023/06/21 13:39:48;;;;;;;5.45;1.58;;;27.30;96.70;;;;;;4904786;29;20051;-96
2023/06/21 13:43:31;;;;;;;;;;;;;;;;;;;;;
2023/06/21 13:46:43;;;;;;;4.50;1.50;;;27.50;95.40;;;;;;4896351;29;20079;-96
2023/06/21 13:52:39;;;;;;;4.95;1.45;;;27.50;92.70;;;;;;4864342;29;20056;-96
2023/06/21 13:59:18;;;;;;;3.60;1.35;;;27.60;90.10;;;;;;4845476;29;20056;-96
2023/06/21 14:02:27;;;;;;;3.08;1.48;;;27.30;88.80;;;;;;4898530;29;20092;-96
2023/06/21 14:05:23;;;;;;;4.97;1.05;;;27.20;87.30;;;;;;4880966;29;20136;-96
2023/06/21 14:08:31;;;;;;;4.15;1.20;;;27.30;86.90;;;;;;4868220;29;20087;-96
2023/06/21 14:11:48;;;;;;;6.57;1.33;;;27.00;84.40;;;;;;4879812;29;20068;-96
2023/06/21 14:14:27;;;;;;;5.10;1.40;;;27.00;84.20;;;;;;4872077;29;20052;-96
2023/06/21 14:26:37;;;;;;;4.55;1.88;;;27.90;87.30;;;;;;4824190;29;20030;-96
2023/06/21 14:29:44;;;;;;;7.75;2.25;;;28.00;88.00;;;;;;4796928;29;20199;-96
2023/06/21 14:34:13;;;;;;;8.52;2.60;;;28.10;87.80;;;;;;4806030;29;20053;-96
2023/06/21 14:36:32;;;;;;;6.78;3.60;;;28.10;91.20;;;;;;4882849;29;20083;-96
2023/06/21 14:39:21;;;;;;;5.30;2.65;;;28.10;92.30;;;;;;4886665;29;20052;-96
2023/06/21 14:42:08;;;;;;;7.30;3.08;;;28.00;91.80;;;;;;4884749;23;20137;-86
2023/06/21 14:44:34;;;;;;;7.82;3.58;;;27.90;92.30;;;;;;4841826;29;20045;-86
2023/06/21 14:47:00;;;;;;;6.72;3.40;;;27.90;93.10;;;;;;4843422;29;20049;-87
2023/06/21 14:49:35;;;;;;;11.15;4.65;;;27.70;93.20;;;;;;4832044;29;20394;-88
2023/06/21 14:52:02;;;;;;;7.85;4.10;;;27.90;95.20;;;;;;4837819;29;20072;-88
2023/06/21 14:54:28;;;;;;;14.63;4.97;;;27.90;95.20;;;;;;4836754;29;20059;-88
2023/06/21 14:56:54;;;;;;;10.00;5.28;;;27.80;95.10;;;;;;4840606;29;20048;-87
2023/06/21 14:59:21;;;;;;;10.32;4.53;;;27.80;96.00;;;;;;4840246;29;20131;-88
2023/06/21 15:02:14;;;;;;;13.13;5.18;;;27.70;95.30;;;;;;4864564;29;20052;-88
2023/06/21 15:04:40;;;;;;;11.67;4.63;;;27.60;96.60;;;;;;4852521;29;20061;-88
2023/06/21 15:07:07;;;;;;;10.88;4.85;;;27.60;96.30;;;;;;4839445;29;20285;-86
2023/06/21 15:09:33;;;;;;;11.75;5.47;;;27.70;96.60;;;;;;4839651;29;20205;-87
2023/06/21 15:11:59;;;;;;;11.15;5.43;;;27.70;97.20;;;;;;4848645;29;20553;-87
2023/06/21 15:14:30;;;;;;;10.60;5.55;;;27.70;97.80;;;;;;4842257;29;20138;-88
2023/06/21 15:16:59;;;;;;;14.00;5.75;;;27.60;97.90;;;;;;4841131;29;20052;-87
2023/06/21 15:19:24;;;;;;;11.30;5.28;;;27.50;97.60;;;;;;4848698;29;20057;-86
2023/06/21 15:21:50;;;;;;;15.40;5.80;;;27.40;97.20;;;;;;4838886;29;20045;-87
2023/06/21 15:24:19;;;;;;;14.25;7.03;;;27.40;97.50;;;;;;4828646;29;20454;-88
2023/06/21 15:26:44;;;;;;;13.05;5.82;;;27.50;97.50;;;;;;4864236;29;20884;-88
2023/06/21 15:29:13;;;;;;;11.40;5.28;;;27.40;97.80;;;;;;4833634;29;20485;-89
2023/06/21 15:31:40;;;;;;;9.32;4.85;;;27.60;98.40;;;;;;4842541;29;20414;-89
2023/06/21 15:34:09;;;;;;;9.80;5.13;;;27.80;97.00;;;;;;4843864;29;20149;-89
2023/06/21 15:36:37;;;;;;;12.95;5.20;;;27.60;95.80;;;;;;4851521;29;20119;-89
2023/06/21 15:39:04;;;;;;;8.13;5.13;;;27.60;96.90;;;;;;4848227;29;20060;-88
2023/06/21 15:41:29;;;;;;;13.18;6.35;;;27.40;96.60;;;;;;4869885;29;20049;-88
2023/06/21 15:43:55;;;;;;;8.85;5.03;;;27.20;98.10;;;;;;4859091;29;20068;-88
2023/06/21 15:46:21;;;;;;;10.07;4.70;;;27.10;98.10;;;;;;4856320;29;20049;-88
2023/06/21 15:48:46;;;;;;;7.53;3.47;;;27.30;98.30;;;;;;4843368;29;20105;-87
2023/06/21 15:51:12;;;;;;;11.13;3.70;;;27.30;97.00;;;;;;4846009;29;20109;-87
2023/06/21 15:53:39;;;;;;;7.20;4.10;;;27.40;95.50;;;;;;4845085;29;20491;-88
2023/06/21 15:56:06;;;;;;;8.70;4.38;;;27.30;95.30;;;;;;4833215;29;20052;-87
2023/06/21 15:58:32;;;;;;;14.70;4.22;;;27.20;95.10;;;;;;4848979;29;20080;-86
2023/06/21 16:00:59;;;;;;;8.95;3.72;;;27.20;95.20;;;;;;4838511;29;20091;-88
2023/06/21 16:03:24;;;;;;;8.75;3.83;;;27.20;95.40;;;;;;4851162;29;20066;-87
2023/06/21 16:05:50;;;;;;;8.43;3.65;;;27.20;95.60;;;;;;4866170;29;20120;-87
2023/06/21 16:08:16;;;;;;;6.38;3.63;;;27.10;94.60;;;;;;4854022;29;20569;-88
2023/06/21 16:10:42;;;;;;;7.90;3.15;;;27.20;94.10;;;;;;4864757;29;20077;-88
2023/06/21 16:13:08;;;;;;;7.45;3.55;;;27.20;93.70;;;;;;4850805;29;20650;-88
2023/06/21 16:15:34;;;;;;;10.18;3.45;;;27.10;93.00;;;;;;4861079;29;20053;-89
2023/06/21 16:17:59;;;;;;;7.18;3.60;;;27.20;93.70;;;;;;4846008;29;20152;-88
2023/06/21 16:20:27;;;;;;;6.07;3.15;;;27.30;93.90;;;;;;4841340;29;20083;-87
2023/06/21 16:22:53;;;;;;;8.05;3.65;;;27.50;93.30;;;;;;4843436;29;20607;-88
2023/06/21 16:25:19;;;;;;;5.57;2.42;;;27.60;93.00;;;;;;4857545;29;20060;-88
2023/06/21 16:27:45;;;;;;;5.85;2.42;;;27.70;91.80;;;;;;4843125;29;20113;-88
2023/06/21 16:30:12;;;;;;;9.25;3.90;;;27.80;91.60;;;;;;4840729;29;20458;-88
2023/06/21 16:32:38;;;;;;;8.35;2.78;;;27.90;91.00;;;;;;4842678;29;20091;-88
2023/06/21 16:35:04;;;;;;;5.75;2.53;;;28.10;91.70;;;;;;4857751;29;20442;-89
2023/06/21 16:37:30;;;;;;;5.60;2.28;;;28.40;91.10;;;;;;4842979;29;20053;-89
2023/06/21 16:39:55;;;;;;;5.80;2.40;;;28.40;90.30;;;;;;4854540;29;20073;-89
2023/06/21 16:42:21;;;;;;;5.25;2.03;;;28.60;90.10;;;;;;4838742;29;20062;-89
2023/06/21 16:44:47;;;;;;;6.50;2.03;;;28.80;88.60;;;;;;4858391;29;20093;-89
2023/06/21 16:47:13;;;;;;;10.93;2.22;;;29.10;87.30;;;;;;4845070;29;20057;-88
2023/06/21 16:49:41;;;;;;;6.35;1.98;;;29.20;85.50;;;;;;4854054;29;20045;-87
2023/06/21 16:52:09;;;;;;;6.88;1.92;;;29.50;84.40;;;;;;4839069;29;20117;-89
2023/06/21 16:54:35;;;;;;;5.93;1.88;;;29.80;82.40;;;;;;4851267;29;20513;-87
2023/06/21 16:57:01;;;;;;;3.10;1.15;;;30.10;81.70;;;;;;4840677;29;20053;-88
2023/06/21 16:59:26;;;;;;;5.07;1.73;;;30.40;80.20;;;;;;4842320;29;20357;-86
2023/06/21 17:04:43;;;;;;;6.47;1.30;;;30.60;76.50;;;;;;4899511;23;20064;-86
2023/06/21 17:07:09;;;;;;;4.03;1.50;;;30.90;76.40;;;;;;4872752;29;20645;-87
2023/06/21 17:09:39;;;;;;;5.22;1.50;;;31.00;75.20;;;;;;4861956;29;20139;-86
2023/06/21 17:12:15;;;;;;;4.25;1.83;;;31.00;74.30;;;;;;4863463;29;20503;-87
2023/06/21 17:14:52;;;;;;;6.15;2.28;;;31.00;73.80;;;;;;4864016;29;20620;-86
2023/06/21 17:17:39;;;;;;;3.15;1.40;;;31.10;75.20;;;;;;4862219;29;20133;-87
2023/06/21 17:20:13;;;;;;;7.45;2.35;;;31.20;74.30;;;;;;4875431;29;20068;-87
2023/06/21 17:23:00;;;;;;;7.18;2.50;;;31.30;73.40;;;;;;4874344;29;20048;-87
2023/06/21 17:25:43;;;;;;;6.88;2.55;;;31.20;73.70;;;;;;4876543;29;20052;-87
2023/06/21 17:28:29;;;;;;;6.93;2.58;;;31.30;74.30;;;;;;4887877;29;20059;-86
2023/06/21 17:30:58;;;;;;;6.07;2.50;;;31.50;73.20;;;;;;4875194;29;20048;-86
2023/06/21 17:33:45;;;;;;;5.03;2.40;;;31.60;72.50;;;;;;4887763;23;20527;-87
2023/06/21 17:36:11;;;;;;;5.97;2.15;;;31.70;73.20;;;;;;4860476;29;20107;-87
2023/06/21 17:38:46;;;;;;;7.35;2.80;;;31.70;73.50;;;;;;4863725;29;20053;-86
2023/06/21 17:41:12;;;;;;;7.85;2.72;;;31.70;72.50;;;;;;4842545;29;20059;-86
2023/06/21 17:43:38;;;;;;;7.85;2.30;;;31.70;72.40;;;;;;4854092;29;20049;-87
2023/06/21 17:46:03;;;;;;;6.38;2.50;;;31.70;72.60;;;;;;4844622;29;20048;-87
2023/06/21 17:48:29;;;;;;;6.00;2.78;;;31.60;72.50;;;;;;4855551;29;20049;-86
2023/06/21 17:50:55;;;;;;;6.90;2.83;;;31.30;72.30;;;;;;4857688;29;20056;-85
2023/06/21 17:53:21;;;;;;;8.20;3.15;;;30.70;72.80;;;;;;4856733;29;20107;-86
2023/06/21 17:55:47;;;;;;;4.75;2.38;;;29.90;74.00;;;;;;4847644;29;20065;-87
2023/06/21 17:58:12;;;;;;;8.25;2.78;;;29.20;75.10;;;;;;4870360;29;20047;-86
2023/06/21 18:00:38;;;;;;;8.30;2.92;;;28.70;76.10;;;;;;4844537;29;20501;-85
2023/06/21 18:03:04;;;;;;;10.88;2.83;;;28.20;76.00;;;;;;4869040;29;20098;-85
2023/06/21 18:05:30;;;;;;;6.75;3.50;;;27.70;77.00;;;;;;4850461;29;20060;-86
2023/06/21 18:08:02;;;;;;;5.78;2.40;;;27.30;77.50;;;;;;4867542;29;20032;-86
2023/06/21 18:10:37;;;;;;;7.18;2.45;;;27.00;78.90;;;;;;4846866;29;20048;-86
2023/06/21 18:13:05;;;;;;;7.53;2.75;;;26.70;79.60;;;;;;4865031;29;20049;-85
2023/06/21 18:15:31;;;;;;;7.28;2.47;;;26.50;80.70;;;;;;4869161;29;20115;-86
2023/06/21 18:17:57;;;;;;;6.05;2.67;;;26.40;81.70;;;;;;4862476;29;20071;-86
2023/06/21 18:20:24;;;;;;;4.22;2.40;;;26.20;83.00;;;;;;4844385;29;20053;-86
2023/06/21 18:22:49;;;;;;;9.73;4.30;;;26.10;85.10;;;;;;4848484;29;20283;-87
2023/06/21 18:25:15;;;;;;;13.88;6.03;;;25.90;89.40;;;;;;4869435;29;20064;-86
2023/06/21 18:27:41;;;;;;;11.43;6.00;;;25.70;93.40;;;;;;4862834;29;20459;-85
2023/06/21 18:30:08;;;;;;;14.50;6.93;;;25.40;97.50;;;;;;4846105;29;20045;-86
2023/06/21 18:32:36;;;;;;;15.25;7.63;;;25.10;99.90;;;;;;4857140;29;20409;-87
2023/06/21 18:35:05;;;;;;;15.65;7.43;;;24.90;99.90;;;;;;4854329;29;20048;-87
2023/06/21 18:37:43;;;;;;;18.00;7.60;;;24.60;99.90;;;;;;4885621;29;20067;-86
2023/06/21 18:40:16;;;;;;;15.90;7.75;;;24.40;99.90;;;;;;4868555;29;20084;-87
2023/06/21 18:43:27;;;;;;;19.45;8.07;;;24.20;99.90;;;;;;4853530;29;20515;-87
2023/06/21 18:46:13;;;;;;;16.45;7.40;;;24.10;99.90;;;;;;4863733;29;20048;-88
2023/06/21 18:49:06;;;;;;;12.40;7.55;;;23.80;99.90;;;;;;4876690;29;20691;-87
2023/06/21 18:51:59;;;;;;;13.93;7.53;;;23.70;99.90;;;;;;4858993;29;20064;-88
2023/06/21 18:57:09;;;;;;;15.85;8.65;;;23.30;99.90;;;;;;4918950;23;20113;-96
2023/06/21 18:59:35;;;;;;;16.75;7.82;;;23.20;99.90;;;;;;4861145;29;20052;-96
2023/06/21 19:02:01;;;;;;;14.98;7.85;;;23.10;99.90;;;;;;4852062;29;20045;-96